sensor_id;sensor_type;location;lat;lon;timestamp;pressure;altitude;pressure_sealevel;temperature
24201;BMP280;2801;50.972;7.856;2024-03-29T00:01:27;95590.78;;;6.38
24201;BMP280;2801;50.972;7.856;2024-03-29T00:03:53;95591.84;;;6.34
24201;BMP280;2801;50.972;7.856;2024-03-29T00:06:20;95578.88;;;6.32
24201;BMP280;2801;50.972;7.856;2024-03-29T00:08:46;95581.53;;;6.32
24201;BMP280;2801;50.972;7.856;2024-03-29T00:11:13;95577.69;;;6.30
24201;BMP280;2801;50.972;7.856;2024-03-29T00:13:40;95571.56;;;6.29
24201;BMP280;2801;50.972;7.856;2024-03-29T00:16:06;95557.66;;;6.20
24201;BMP280;2801;50.972;7.856;2024-03-29T00:18:33;95561.06;;;6.21
24201;BMP280;2801;50.972;7.856;2024-03-29T00:21:00;95562.53;;;6.18
24201;BMP280;2801;50.972;7.856;2024-03-29T00:23:25;95561.34;;;6.16
24201;BMP280;2801;50.972;7.856;2024-03-29T00:25:52;95560.47;;;6.12
24201;BMP280;2801;50.972;7.856;2024-03-29T00:28:18;95553.84;;;6.06
24201;BMP280;2801;50.972;7.856;2024-03-29T00:30:45;95546.38;;;5.96
24201;BMP280;2801;50.972;7.856;2024-03-29T00:33:11;95545.13;;;5.93
24201;BMP280;2801;50.972;7.856;2024-03-29T00:35:37;95546.06;;;5.85
24201;BMP280;2801;50.972;7.856;2024-03-29T00:38:03;95539.09;;;5.81
24201;BMP280;2801;50.972;7.856;2024-03-29T00:40:30;95547.59;;;5.74
24201;BMP280;2801;50.972;7.856;2024-03-29T00:42:56;95547.53;;;5.71
24201;BMP280;2801;50.972;7.856;2024-03-29T00:45:22;95550.84;;;5.68
24201;BMP280;2801;50.972;7.856;2024-03-29T00:47:48;95549.31;;;5.67
24201;BMP280;2801;50.972;7.856;2024-03-29T00:50:15;95549.72;;;5.69
24201;BMP280;2801;50.972;7.856;2024-03-29T00:52:41;95559.28;;;5.70
24201;BMP280;2801;50.972;7.856;2024-03-29T00:55:08;95552.59;;;5.76
24201;BMP280;2801;50.972;7.856;2024-03-29T00:57:34;95560.81;;;5.83
24201;BMP280;2801;50.972;7.856;2024-03-29T01:00:00;95543.50;;;5.89
24201;BMP280;2801;50.972;7.856;2024-03-29T01:02:26;95555.44;;;5.95
24201;BMP280;2801;50.972;7.856;2024-03-29T01:04:53;95549.03;;;5.96
24201;BMP280;2801;50.972;7.856;2024-03-29T01:07:19;95556.28;;;5.99
24201;BMP280;2801;50.972;7.856;2024-03-29T01:09:45;95566.78;;;6.07
24201;BMP280;2801;50.972;7.856;2024-03-29T01:12:11;95565.53;;;6.17
24201;BMP280;2801;50.972;7.856;2024-03-29T01:14:37;95563.41;;;6.22
24201;BMP280;2801;50.972;7.856;2024-03-29T01:17:04;95559.28;;;6.25
24201;BMP280;2801;50.972;7.856;2024-03-29T01:19:32;95556.03;;;6.31
24201;BMP280;2801;50.972;7.856;2024-03-29T01:21:58;95555.34;;;6.34
24201;BMP280;2801;50.972;7.856;2024-03-29T01:24:25;95560.50;;;6.43
24201;BMP280;2801;50.972;7.856;2024-03-29T01:26:51;95560.97;;;6.45
24201;BMP280;2801;50.972;7.856;2024-03-29T01:29:17;95566.34;;;6.48
24201;BMP280;2801;50.972;7.856;2024-03-29T01:31:43;95573.22;;;6.49
24201;BMP280;2801;50.972;7.856;2024-03-29T01:34:09;95570.31;;;6.54
24201;BMP280;2801;50.972;7.856;2024-03-29T01:36:36;95567.41;;;6.59
24201;BMP280;2801;50.972;7.856;2024-03-29T01:39:03;95571.00;;;6.67
24201;BMP280;2801;50.972;7.856;2024-03-29T01:41:29;95578.97;;;6.67
24201;BMP280;2801;50.972;7.856;2024-03-29T01:43:55;95586.81;;;6.75
24201;BMP280;2801;50.972;7.856;2024-03-29T01:46:23;95569.03;;;6.79
24201;BMP280;2801;50.972;7.856;2024-03-29T01:48:53;95568.41;;;6.86
24201;BMP280;2801;50.972;7.856;2024-03-29T01:51:22;95560.44;;;6.86
24201;BMP280;2801;50.972;7.856;2024-03-29T01:53:53;95556.00;;;6.90
24201;BMP280;2801;50.972;7.856;2024-03-29T01:56:22;95541.97;;;6.93
24201;BMP280;2801;50.972;7.856;2024-03-29T01:58:51;95543.88;;;6.92
24201;BMP280;2801;50.972;7.856;2024-03-29T02:01:20;95545.34;;;6.90
24201;BMP280;2801;50.972;7.856;2024-03-29T02:03:47;95559.41;;;6.90
24201;BMP280;2801;50.972;7.856;2024-03-29T02:06:14;95553.06;;;6.95
24201;BMP280;2801;50.972;7.856;2024-03-29T02:08:42;95532.44;;;6.92
24201;BMP280;2801;50.972;7.856;2024-03-29T02:11:09;95532.16;;;6.97
24201;BMP280;2801;50.972;7.856;2024-03-29T02:13:35;95515.16;;;7.01
24201;BMP280;2801;50.972;7.856;2024-03-29T02:16:03;95526.31;;;7.07
24201;BMP280;2801;50.972;7.856;2024-03-29T02:18:29;95529.16;;;7.14
24201;BMP280;2801;50.972;7.856;2024-03-29T02:20:55;95534.97;;;7.19
24201;BMP280;2801;50.972;7.856;2024-03-29T02:23:27;95554.13;;;7.25
24201;BMP280;2801;50.972;7.856;2024-03-29T02:25:55;95537.97;;;7.33
24201;BMP280;2801;50.972;7.856;2024-03-29T02:28:23;95520.41;;;7.32
24201;BMP280;2801;50.972;7.856;2024-03-29T02:30:52;95512.91;;;7.38
24201;BMP280;2801;50.972;7.856;2024-03-29T02:33:21;95481.38;;;7.40
24201;BMP280;2801;50.972;7.856;2024-03-29T02:35:48;95455.25;;;7.30
24201;BMP280;2801;50.972;7.856;2024-03-29T02:38:15;95464.44;;;7.32
24201;BMP280;2801;50.972;7.856;2024-03-29T02:40:41;95458.22;;;7.25
24201;BMP280;2801;50.972;7.856;2024-03-29T02:43:07;95462.91;;;7.31
24201;BMP280;2801;50.972;7.856;2024-03-29T02:45:33;95474.69;;;7.30
24201;BMP280;2801;50.972;7.856;2024-03-29T02:47:59;95469.63;;;7.25
24201;BMP280;2801;50.972;7.856;2024-03-29T02:50:25;95456.78;;;7.31
24201;BMP280;2801;50.972;7.856;2024-03-29T02:52:51;95453.03;;;7.32
24201;BMP280;2801;50.972;7.856;2024-03-29T02:55:17;95474.75;;;7.34
24201;BMP280;2801;50.972;7.856;2024-03-29T02:57:43;95477.69;;;7.29
24201;BMP280;2801;50.972;7.856;2024-03-29T03:00:10;95463.25;;;7.30
24201;BMP280;2801;50.972;7.856;2024-03-29T03:02:40;95463.69;;;7.32
24201;BMP280;2801;50.972;7.856;2024-03-29T03:05:07;95469.63;;;7.25
24201;BMP280;2801;50.972;7.856;2024-03-29T03:07:36;95465.91;;;7.30
24201;BMP280;2801;50.972;7.856;2024-03-29T03:10:21;95456.03;;;7.30
24201;BMP280;2801;50.972;7.856;2024-03-29T03:13:06;95455.25;;;7.30
24201;BMP280;2801;50.972;7.856;2024-03-29T03:15:32;95457.56;;;7.31
24201;BMP280;2801;50.972;7.856;2024-03-29T03:17:58;95456.03;;;7.30
24201;BMP280;2801;50.972;7.856;2024-03-29T03:20:25;95460.19;;;7.28
24201;BMP280;2801;50.972;7.856;2024-03-29T03:22:56;95463.59;;;7.28
24201;BMP280;2801;50.972;7.856;2024-03-29T03:25:27;95460.94;;;7.28
24201;BMP280;2801;50.972;7.856;2024-03-29T03:27:53;95468.53;;;7.26
24201;BMP280;2801;50.972;7.856;2024-03-29T03:30:20;95466.56;;;7.23
24201;BMP280;2801;50.972;7.856;2024-03-29T03:32:46;95461.56;;;7.22
24201;BMP280;2801;50.972;7.856;2024-03-29T03:35:12;95468.53;;;7.26
24201;BMP280;2801;50.972;7.856;2024-03-29T03:37:38;95468.19;;;7.28
24201;BMP280;2801;50.972;7.856;2024-03-29T03:40:06;95476.56;;;7.30
24201;BMP280;2801;50.972;7.856;2024-03-29T03:42:33;95470.22;;;7.34
24201;BMP280;2801;50.972;7.856;2024-03-29T03:44:59;95464.19;;;7.37
24201;BMP280;2801;50.972;7.856;2024-03-29T03:47:25;95475.69;;;7.41
24201;BMP280;2801;50.972;7.856;2024-03-29T03:49:52;95481.84;;;7.45
24201;BMP280;2801;50.972;7.856;2024-03-29T03:52:18;95481.22;;;7.52
24201;BMP280;2801;50.972;7.856;2024-03-29T03:54:44;95464.59;;;7.58
24201;BMP280;2801;50.972;7.856;2024-03-29T03:57:10;95460.25;;;7.69
24201;BMP280;2801;50.972;7.856;2024-03-29T03:59:37;95455.00;;;7.73
24201;BMP280;2801;50.972;7.856;2024-03-29T04:02:05;95453.88;;;7.74
24201;BMP280;2801;50.972;7.856;2024-03-29T04:04:33;95444.31;;;7.73
24201;BMP280;2801;50.972;7.856;2024-03-29T04:06:59;95448.81;;;7.69
24201;BMP280;2801;50.972;7.856;2024-03-29T04:09:25;95454.06;;;7.65
24201;BMP280;2801;50.972;7.856;2024-03-29T04:11:52;95463.13;;;7.61
24201;BMP280;2801;50.972;7.856;2024-03-29T04:14:18;95463.41;;;7.56
24201;BMP280;2801;50.972;7.856;2024-03-29T04:16:46;95455.34;;;7.52
24201;BMP280;2801;50.972;7.856;2024-03-29T04:19:12;95460.25;;;7.50
24201;BMP280;2801;50.972;7.856;2024-03-29T04:21:38;95447.63;;;7.47
24201;BMP280;2801;50.972;7.856;2024-03-29T04:24:04;95444.69;;;7.33
24201;BMP280;2801;50.972;7.856;2024-03-29T04:26:33;95455.88;;;7.23
24201;BMP280;2801;50.972;7.856;2024-03-29T04:28:59;95449.13;;;7.10
24201;BMP280;2801;50.972;7.856;2024-03-29T04:31:25;95451.84;;;6.95
24201;BMP280;2801;50.972;7.856;2024-03-29T04:33:51;95445.59;;;6.87
24201;BMP280;2801;50.972;7.856;2024-03-29T04:36:18;95439.75;;;6.82
24201;BMP280;2801;50.972;7.856;2024-03-29T04:38:44;95436.25;;;6.78
24201;BMP280;2801;50.972;7.856;2024-03-29T04:41:10;95441.69;;;6.66
24201;BMP280;2801;50.972;7.856;2024-03-29T04:43:37;95431.50;;;6.52
24201;BMP280;2801;50.972;7.856;2024-03-29T04:46:08;95430.38;;;6.53
24201;BMP280;2801;50.972;7.856;2024-03-29T04:48:44;95420.84;;;6.52
24201;BMP280;2801;50.972;7.856;2024-03-29T04:51:12;95425.59;;;6.43
24201;BMP280;2801;50.972;7.856;2024-03-29T04:53:39;95432.00;;;6.42
24201;BMP280;2801;50.972;7.856;2024-03-29T04:56:06;95443.16;;;6.48
24201;BMP280;2801;50.972;7.856;2024-03-29T04:58:32;95431.59;;;6.40
24201;BMP280;2801;50.972;7.856;2024-03-29T05:00:59;95434.94;;;6.37
24201;BMP280;2801;50.972;7.856;2024-03-29T05:03:26;95426.53;;;6.35
24201;BMP280;2801;50.972;7.856;2024-03-29T05:05:52;95420.84;;;6.37
24201;BMP280;2801;50.972;7.856;2024-03-29T05:08:20;95428.94;;;6.40
24201;BMP280;2801;50.972;7.856;2024-03-29T05:10:50;95427.72;;;6.38
24201;BMP280;2801;50.972;7.856;2024-03-29T05:13:17;95430.41;;;6.38
24201;BMP280;2801;50.972;7.856;2024-03-29T05:15:48;95434.59;;;6.39
24201;BMP280;2801;50.972;7.856;2024-03-29T05:18:15;95434.25;;;6.40
24201;BMP280;2801;50.972;7.856;2024-03-29T05:20:41;95443.69;;;6.38
24201;BMP280;2801;50.972;7.856;2024-03-29T05:23:14;95442.31;;;6.44
24201;BMP280;2801;50.972;7.856;2024-03-29T05:25:41;95444.28;;;6.47
24201;BMP280;2801;50.972;7.856;2024-03-29T05:28:09;95437.09;;;6.47
24201;BMP280;2801;50.972;7.856;2024-03-29T05:30:35;95440.09;;;6.46
24201;BMP280;2801;50.972;7.856;2024-03-29T05:33:05;95435.53;;;6.46
24201;BMP280;2801;50.972;7.856;2024-03-29T05:35:33;95431.66;;;6.44
24201;BMP280;2801;50.972;7.856;2024-03-29T05:37:59;95435.19;;;6.48
24201;BMP280;2801;50.972;7.856;2024-03-29T05:40:26;95434.84;;;6.49
24201;BMP280;2801;50.972;7.856;2024-03-29T05:42:54;95437.31;;;6.58
24201;BMP280;2801;50.972;7.856;2024-03-29T05:45:30;95441.97;;;6.61
24201;BMP280;2801;50.972;7.856;2024-03-29T05:47:58;95433.63;;;6.62
24201;BMP280;2801;50.972;7.856;2024-03-29T05:50:25;95434.03;;;6.64
24201;BMP280;2801;50.972;7.856;2024-03-29T05:52:53;95439.47;;;6.68
24201;BMP280;2801;50.972;7.856;2024-03-29T05:55:19;95436.03;;;6.67
24201;BMP280;2801;50.972;7.856;2024-03-29T05:57:45;95441.41;;;6.71
24201;BMP280;2801;50.972;7.856;2024-03-29T06:00:13;95461.16;;;6.70
24201;BMP280;2801;50.972;7.856;2024-03-29T06:02:42;95449.22;;;6.79
24201;BMP280;2801;50.972;7.856;2024-03-29T06:05:11;95459.63;;;6.84
24201;BMP280;2801;50.972;7.856;2024-03-29T06:07:37;95456.25;;;6.87
24201;BMP280;2801;50.972;7.856;2024-03-29T06:10:04;95456.41;;;6.94
24201;BMP280;2801;50.972;7.856;2024-03-29T06:12:34;95458.09;;;7.02
24201;BMP280;2801;50.972;7.856;2024-03-29T06:15:02;95473.09;;;7.10
24201;BMP280;2801;50.972;7.856;2024-03-29T06:17:47;95467.53;;;7.15
24201;BMP280;2801;50.972;7.856;2024-03-29T06:20:14;95467.25;;;7.20
24201;BMP280;2801;50.972;7.856;2024-03-29T06:22:40;95475.72;;;7.26
24201;BMP280;2801;50.972;7.856;2024-03-29T06:25:06;95467.38;;;7.27
24201;BMP280;2801;50.972;7.856;2024-03-29T06:27:34;95453.44;;;7.34
24201;BMP280;2801;50.972;7.856;2024-03-29T06:30:02;95455.84;;;7.39
24201;BMP280;2801;50.972;7.856;2024-03-29T06:32:33;95466.56;;;7.42
24201;BMP280;2801;50.972;7.856;2024-03-29T06:34:59;95464.41;;;7.48
24201;BMP280;2801;50.972;7.856;2024-03-29T06:37:26;95468.34;;;7.54
24201;BMP280;2801;50.972;7.856;2024-03-29T06:39:54;95465.66;;;7.54
24201;BMP280;2801;50.972;7.856;2024-03-29T06:42:21;95462.28;;;7.57
24201;BMP280;2801;50.972;7.856;2024-03-29T06:44:47;95454.78;;;7.62
24201;BMP280;2801;50.972;7.856;2024-03-29T06:47:13;95459.69;;;7.60
24201;BMP280;2801;50.972;7.856;2024-03-29T06:49:39;95461.66;;;7.63
24201;BMP280;2801;50.972;7.856;2024-03-29T06:52:05;95460.88;;;7.63
24201;BMP280;2801;50.972;7.856;2024-03-29T06:54:32;95459.34;;;7.62
24201;BMP280;2801;50.972;7.856;2024-03-29T06:57:03;95467.84;;;7.68
24201;BMP280;2801;50.972;7.856;2024-03-29T06:59:30;95478.63;;;7.74
24201;BMP280;2801;50.972;7.856;2024-03-29T07:01:56;95468.38;;;7.77
24201;BMP280;2801;50.972;7.856;2024-03-29T07:04:24;95464.66;;;7.81
24201;BMP280;2801;50.972;7.856;2024-03-29T07:06:51;95473.84;;;7.84
24201;BMP280;2801;50.972;7.856;2024-03-29T07:09:22;95479.25;;;7.87
24201;BMP280;2801;50.972;7.856;2024-03-29T07:11:51;95475.53;;;7.92
24201;BMP280;2801;50.972;7.856;2024-03-29T07:14:18;95475.16;;;7.93
24201;BMP280;2801;50.972;7.856;2024-03-29T07:16:46;95478.25;;;7.95
24201;BMP280;2801;50.972;7.856;2024-03-29T07:19:13;95481.75;;;7.99
24201;BMP280;2801;50.972;7.856;2024-03-29T07:21:40;95479.88;;;8.00
24201;BMP280;2801;50.972;7.856;2024-03-29T07:24:07;95479.56;;;8.05
24201;BMP280;2801;50.972;7.856;2024-03-29T07:26:33;95487.66;;;8.08
24201;BMP280;2801;50.972;7.856;2024-03-29T07:28:59;95482.78;;;8.14
24201;BMP280;2801;50.972;7.856;2024-03-29T07:31:26;95477.16;;;8.19
24201;BMP280;2801;50.972;7.856;2024-03-29T07:33:52;95484.81;;;8.20
24201;BMP280;2801;50.972;7.856;2024-03-29T07:36:19;95489.88;;;8.25
24201;BMP280;2801;50.972;7.856;2024-03-29T07:38:45;95501.69;;;8.24
24201;BMP280;2801;50.972;7.856;2024-03-29T07:41:11;95510.88;;;8.27
24201;BMP280;2801;50.972;7.856;2024-03-29T07:43:57;95506.00;;;8.32
24201;BMP280;2801;50.972;7.856;2024-03-29T07:46:32;95500.69;;;8.32
24201;BMP280;2801;50.972;7.856;2024-03-29T07:48:59;95511.47;;;8.39
24201;BMP280;2801;50.972;7.856;2024-03-29T07:51:25;95519.19;;;8.44
24201;BMP280;2801;50.972;7.856;2024-03-29T07:53:51;95527.28;;;8.48
24201;BMP280;2801;50.972;7.856;2024-03-29T07:56:18;95538.44;;;8.53
24201;BMP280;2801;50.972;7.856;2024-03-29T07:58:44;95522.88;;;8.59
24201;BMP280;2801;50.972;7.856;2024-03-29T08:01:17;95535.81;;;8.57
24201;BMP280;2801;50.972;7.856;2024-03-29T08:03:43;95542.75;;;8.61
24201;BMP280;2801;50.972;7.856;2024-03-29T08:06:10;95537.78;;;8.60
24201;BMP280;2801;50.972;7.856;2024-03-29T08:08:36;95529.38;;;8.58
24201;BMP280;2801;50.972;7.856;2024-03-29T08:11:02;95542.28;;;8.56
24201;BMP280;2801;50.972;7.856;2024-03-29T08:13:28;95545.84;;;8.63
24201;BMP280;2801;50.972;7.856;2024-03-29T08:15:59;95545.94;;;8.70
24201;BMP280;2801;50.972;7.856;2024-03-29T08:18:27;95532.31;;;8.75
24201;BMP280;2801;50.972;7.856;2024-03-29T08:20:54;95540.81;;;8.81
24201;BMP280;2801;50.972;7.856;2024-03-29T08:23:28;95540.50;;;8.86
24201;BMP280;2801;50.972;7.856;2024-03-29T08:25:55;95538.97;;;8.85
24201;BMP280;2801;50.972;7.856;2024-03-29T08:28:24;95533.31;;;8.90
24201;BMP280;2801;50.972;7.856;2024-03-29T08:31:04;95526.94;;;8.98
24201;BMP280;2801;50.972;7.856;2024-03-29T08:33:31;95533.19;;;9.05
24201;BMP280;2801;50.972;7.856;2024-03-29T08:35:57;95536.78;;;9.16
24201;BMP280;2801;50.972;7.856;2024-03-29T08:38:24;95536.03;;;9.19
24201;BMP280;2801;50.972;7.856;2024-03-29T08:40:51;95541.84;;;9.25
24201;BMP280;2801;50.972;7.856;2024-03-29T08:43:17;95538.47;;;9.28
24201;BMP280;2801;50.972;7.856;2024-03-29T08:45:44;95531.34;;;9.35
24201;BMP280;2801;50.972;7.856;2024-03-29T08:48:11;95539.81;;;9.41
24201;BMP280;2801;50.972;7.856;2024-03-29T08:50:37;95547.09;;;9.44
24201;BMP280;2801;50.972;7.856;2024-03-29T08:53:05;95534.19;;;9.49
24201;BMP280;2801;50.972;7.856;2024-03-29T08:55:32;95534.59;;;9.51
24201;BMP280;2801;50.972;7.856;2024-03-29T08:58:00;95540.66;;;9.48
24201;BMP280;2801;50.972;7.856;2024-03-29T09:00:28;95540.94;;;9.40
24201;BMP280;2801;50.972;7.856;2024-03-29T09:02:54;95545.16;;;9.41
24201;BMP280;2801;50.972;7.856;2024-03-29T09:05:22;95543.25;;;9.41
24201;BMP280;2801;50.972;7.856;2024-03-29T09:07:49;95556.25;;;9.43
24201;BMP280;2801;50.972;7.856;2024-03-29T09:10:16;95552.50;;;9.47
24201;BMP280;2801;50.972;7.856;2024-03-29T09:12:43;95551.38;;;9.48
24201;BMP280;2801;50.972;7.856;2024-03-29T09:15:09;95545.31;;;9.51
24201;BMP280;2801;50.972;7.856;2024-03-29T09:17:46;95546.84;;;9.52
24201;BMP280;2801;50.972;7.856;2024-03-29T09:20:13;95537.31;;;9.55
24201;BMP280;2801;50.972;7.856;2024-03-29T09:22:40;95538.09;;;9.55
24201;BMP280;2801;50.972;7.856;2024-03-29T09:25:07;95543.47;;;9.59
24201;BMP280;2801;50.972;7.856;2024-03-29T09:27:36;95561.09;;;9.60
24201;BMP280;2801;50.972;7.856;2024-03-29T09:30:06;95563.81;;;9.63
24201;BMP280;2801;50.972;7.856;2024-03-29T09:32:34;95574.28;;;9.75
24201;BMP280;2801;50.972;7.856;2024-03-29T09:35:00;95575.06;;;9.76
24201;BMP280;2801;50.972;7.856;2024-03-29T09:37:27;95575.81;;;9.76
24201;BMP280;2801;50.972;7.856;2024-03-29T09:39:54;95569.38;;;9.81
24201;BMP280;2801;50.972;7.856;2024-03-29T09:42:22;95580.50;;;9.83
24201;BMP280;2801;50.972;7.856;2024-03-29T09:44:53;95586.66;;;9.87
24201;BMP280;2801;50.972;7.856;2024-03-29T09:47:22;95592.78;;;9.87
24201;BMP280;2801;50.972;7.856;2024-03-29T09:49:50;95611.56;;;9.91
24201;BMP280;2801;50.972;7.856;2024-03-29T09:52:18;95583.28;;;9.90
24201;BMP280;2801;50.972;7.856;2024-03-29T09:54:46;95579.84;;;9.93
24201;BMP280;2801;50.972;7.856;2024-03-29T09:57:12;95592.94;;;9.98
24201;BMP280;2801;50.972;7.856;2024-03-29T09:59:39;95592.84;;;9.91
24201;BMP280;2801;50.972;7.856;2024-03-29T10:02:15;95597.50;;;9.97
24201;BMP280;2801;50.972;7.856;2024-03-29T10:04:45;95596.38;;;9.98
24201;BMP280;2801;50.972;7.856;2024-03-29T10:07:12;95593.44;;;10.07
24201;BMP280;2801;50.972;7.856;2024-03-29T10:09:42;95598.44;;;10.08
24201;BMP280;2801;50.972;7.856;2024-03-29T10:12:09;95587.72;;;10.08
24201;BMP280;2801;50.972;7.856;2024-03-29T10:14:50;95590.06;;;10.13
24201;BMP280;2801;50.972;7.856;2024-03-29T10:17:19;95575.53;;;10.11
24201;BMP280;2801;50.972;7.856;2024-03-29T10:19:46;95589.72;;;10.15
24201;BMP280;2801;50.972;7.856;2024-03-29T10:22:13;95599.34;;;10.19
24201;BMP280;2801;50.972;7.856;2024-03-29T10:24:39;95596.69;;;10.23
24201;BMP280;2801;50.972;7.856;2024-03-29T10:27:05;95595.22;;;10.25
24201;BMP280;2801;50.972;7.856;2024-03-29T10:29:32;95607.03;;;10.24
24201;BMP280;2801;50.972;7.856;2024-03-29T10:31:58;95589.91;;;10.32
24201;BMP280;2801;50.972;7.856;2024-03-29T10:34:27;95596.41;;;10.31
24201;BMP280;2801;50.972;7.856;2024-03-29T10:37:02;95598.75;;;10.36
24201;BMP280;2801;50.972;7.856;2024-03-29T10:39:32;95611.78;;;10.38
24201;BMP280;2801;50.972;7.856;2024-03-29T10:42:00;95614.06;;;10.36
24201;BMP280;2801;50.972;7.856;2024-03-29T10:44:28;95621.00;;;10.40
24201;BMP280;2801;50.972;7.856;2024-03-29T10:46:57;95621.38;;;10.39
24201;BMP280;2801;50.972;7.856;2024-03-29T10:49:24;95613.03;;;10.44
24201;BMP280;2801;50.972;7.856;2024-03-29T10:51:57;95615.38;;;10.49
24201;BMP280;2801;50.972;7.856;2024-03-29T10:54:25;95610.50;;;10.58
24201;BMP280;2801;50.972;7.856;2024-03-29T10:57:04;95613.31;;;10.72
24201;BMP280;2801;50.972;7.856;2024-03-29T10:59:50;95604.53;;;10.75
24201;BMP280;2801;50.972;7.856;2024-03-29T11:02:33;95615.34;;;10.82
24201;BMP280;2801;50.972;7.856;2024-03-29T11:05:06;95610.03;;;10.89
24201;BMP280;2801;50.972;7.856;2024-03-29T11:07:39;95599.41;;;10.99
24201;BMP280;2801;50.972;7.856;2024-03-29T11:10:11;95597.97;;;11.09
24201;BMP280;2801;50.972;7.856;2024-03-29T11:13:12;95603.41;;;11.19
24201;BMP280;2801;50.972;7.856;2024-03-29T11:15:45;95601.91;;;11.22
24201;BMP280;2801;50.972;7.856;2024-03-29T11:18:17;95603.88;;;11.28
24201;BMP280;2801;50.972;7.856;2024-03-29T11:20:49;95600.50;;;11.39
24201;BMP280;2801;50.972;7.856;2024-03-29T11:23:21;95582.13;;;11.44
24201;BMP280;2801;50.972;7.856;2024-03-29T11:25:53;95581.41;;;11.47
24201;BMP280;2801;50.972;7.856;2024-03-29T11:28:32;95591.44;;;11.57
24201;BMP280;2801;50.972;7.856;2024-03-29T11:31:08;95597.59;;;11.58
24201;BMP280;2801;50.972;7.856;2024-03-29T11:36:13;95577.22;;;11.53
24201;BMP280;2801;50.972;7.856;2024-03-29T11:38:40;95574.25;;;11.65
24201;BMP280;2801;50.972;7.856;2024-03-29T11:41:17;95577.31;;;11.64
24201;BMP280;2801;50.972;7.856;2024-03-29T11:43:44;95589.59;;;11.65
24201;BMP280;2801;50.972;7.856;2024-03-29T11:46:13;95576.22;;;11.72
24201;BMP280;2801;50.972;7.856;2024-03-29T11:48:40;95577.38;;;11.74
24201;BMP280;2801;50.972;7.856;2024-03-29T11:51:10;95587.03;;;11.82
24201;BMP280;2801;50.972;7.856;2024-03-29T11:53:38;95592.03;;;11.91
24201;BMP280;2801;50.972;7.856;2024-03-29T11:56:06;95597.41;;;11.91
24201;BMP280;2801;50.972;7.856;2024-03-29T11:58:34;95601.00;;;12.16
24201;BMP280;2801;50.972;7.856;2024-03-29T12:01:02;95612.22;;;12.35
24201;BMP280;2801;50.972;7.856;2024-03-29T12:03:30;95619.16;;;12.47
24201;BMP280;2801;50.972;7.856;2024-03-29T12:05:59;95601.88;;;12.48
24201;BMP280;2801;50.972;7.856;2024-03-29T12:08:33;95602.69;;;12.55
24201;BMP280;2801;50.972;7.856;2024-03-29T12:11:02;95606.91;;;12.60
24201;BMP280;2801;50.972;7.856;2024-03-29T12:13:30;95613.06;;;12.67
24201;BMP280;2801;50.972;7.856;2024-03-29T12:15:57;95616.19;;;12.76
24201;BMP280;2801;50.972;7.856;2024-03-29T12:18:25;95609.28;;;12.86
24201;BMP280;2801;50.972;7.856;2024-03-29T12:20:56;95612.78;;;13.00
24201;BMP280;2801;50.972;7.856;2024-03-29T12:23:22;95602.03;;;13.11
24201;BMP280;2801;50.972;7.856;2024-03-29T12:25:51;95601.66;;;13.19
24201;BMP280;2801;50.972;7.856;2024-03-29T12:28:20;95610.13;;;13.32
24201;BMP280;2801;50.972;7.856;2024-03-29T12:30:47;95616.28;;;13.29
24201;BMP280;2801;50.972;7.856;2024-03-29T12:33:22;95611.28;;;13.06
24201;BMP280;2801;50.972;7.856;2024-03-29T12:35:52;95613.19;;;12.99
24201;BMP280;2801;50.972;7.856;2024-03-29T12:38:21;95632.72;;;12.96
24201;BMP280;2801;50.972;7.856;2024-03-29T12:40:50;95632.72;;;12.82
24201;BMP280;2801;50.972;7.856;2024-03-29T12:43:22;95645.78;;;12.87
24201;BMP280;2801;50.972;7.856;2024-03-29T12:45:50;95651.50;;;12.78
24201;BMP280;2801;50.972;7.856;2024-03-29T12:48:21;95658.03;;;12.70
24201;BMP280;2801;50.972;7.856;2024-03-29T12:50:50;95661.03;;;12.55
24201;BMP280;2801;50.972;7.856;2024-03-29T12:53:17;95666.34;;;12.44
24201;BMP280;2801;50.972;7.856;2024-03-29T12:55:46;95659.38;;;12.26
24201;BMP280;2801;50.972;7.856;2024-03-29T12:58:14;95668.09;;;12.09
24201;BMP280;2801;50.972;7.856;2024-03-29T13:00:42;95673.72;;;11.90
24201;BMP280;2801;50.972;7.856;2024-03-29T13:03:09;95679.78;;;11.80
24201;BMP280;2801;50.972;7.856;2024-03-29T13:05:37;95663.25;;;11.71
24201;BMP280;2801;50.972;7.856;2024-03-29T13:08:14;95685.44;;;11.64
24201;BMP280;2801;50.972;7.856;2024-03-29T13:10:44;95694.50;;;11.53
24201;BMP280;2801;50.972;7.856;2024-03-29T13:13:10;95699.00;;;11.42
24201;BMP280;2801;50.972;7.856;2024-03-29T13:15:38;95708.91;;;11.34
24201;BMP280;2801;50.972;7.856;2024-03-29T13:18:06;95698.50;;;11.29
24201;BMP280;2801;50.972;7.856;2024-03-29T13:20:36;95705.38;;;11.26
24201;BMP280;2801;50.972;7.856;2024-03-29T13:23:08;95708.78;;;11.20
24201;BMP280;2801;50.972;7.856;2024-03-29T13:25:35;95709.56;;;11.20
24201;BMP280;2801;50.972;7.856;2024-03-29T13:28:01;95712.53;;;11.15
24201;BMP280;2801;50.972;7.856;2024-03-29T13:30:27;95725.94;;;11.12
24201;BMP280;2801;50.972;7.856;2024-03-29T13:32:55;95710.50;;;11.02
24201;BMP280;2801;50.972;7.856;2024-03-29T13:35:21;95710.53;;;11.05
24201;BMP280;2801;50.972;7.856;2024-03-29T13:37:51;95703.63;;;11.04
24201;BMP280;2801;50.972;7.856;2024-03-29T13:40:21;95709.03;;;11.08
24201;BMP280;2801;50.972;7.856;2024-03-29T13:42:47;95691.81;;;11.09
24201;BMP280;2801;50.972;7.856;2024-03-29T13:45:15;95676.88;;;11.08
24201;BMP280;2801;50.972;7.856;2024-03-29T13:47:44;95684.56;;;11.13
24201;BMP280;2801;50.972;7.856;2024-03-29T13:50:12;95704.84;;;11.10
24201;BMP280;2801;50.972;7.856;2024-03-29T13:52:42;95708.75;;;11.16
24201;BMP280;2801;50.972;7.856;2024-03-29T13:55:10;95714.50;;;11.18
24201;BMP280;2801;50.972;7.856;2024-03-29T13:57:37;95709.84;;;11.15
24201;BMP280;2801;50.972;7.856;2024-03-29T14:00:04;95702.94;;;11.11
24201;BMP280;2801;50.972;7.856;2024-03-29T14:02:33;95701.00;;;11.11
24201;BMP280;2801;50.972;7.856;2024-03-29T14:04:59;95715.22;;;11.15
24201;BMP280;2801;50.972;7.856;2024-03-29T14:07:25;95713.75;;;11.18
24201;BMP280;2801;50.972;7.856;2024-03-29T14:09:52;95709.84;;;11.15
24201;BMP280;2801;50.972;7.856;2024-03-29T14:12:19;95714.09;;;11.16
24201;BMP280;2801;50.972;7.856;2024-03-29T14:14:48;95721.03;;;11.21
24201;BMP280;2801;50.972;7.856;2024-03-29T14:17:17;95723.06;;;11.31
24201;BMP280;2801;50.972;7.856;2024-03-29T14:19:45;95736.09;;;11.32
24201;BMP280;2801;50.972;7.856;2024-03-29T14:22:11;95727.69;;;11.34
24201;BMP280;2801;50.972;7.856;2024-03-29T14:24:41;95726.91;;;11.33
24201;BMP280;2801;50.972;7.856;2024-03-29T14:27:09;95715.06;;;11.38
24201;BMP280;2801;50.972;7.856;2024-03-29T14:29:35;95710.91;;;11.44
24201;BMP280;2801;50.972;7.856;2024-03-29T14:32:02;95694.88;;;11.51
24201;BMP280;2801;50.972;7.856;2024-03-29T14:34:29;95690.81;;;11.64
24201;BMP280;2801;50.972;7.856;2024-03-29T14:36:58;95703.16;;;11.76
24201;BMP280;2801;50.972;7.856;2024-03-29T14:39:24;95687.91;;;11.87